Time;durP1;ratioP1;P1;durP2;ratioP2;P2;SDS_P1;SDS_P2;PMS_P1;PMS_P2;Temp;Humidity;BMP_temperature;BMP_pressure;BME280_temperature;BME280_humidity;BME280_pressure;Samples;Min_cycle;Max_cycle;Signal;HPM_P1;HPM_P2
2022/10/24 00:01:43;;;;;;;6.90;2.23;;;17.10;99.90;;;;;;5104756;28;20222;-58
2022/10/24 00:04:11;;;;;;;7.67;2.17;;;17.10;99.90;;;;;;5080055;28;20697;-58
2022/10/24 00:06:40;;;;;;;8.30;2.70;;;17.20;99.90;;;;;;5115411;28;20222;-58
2022/10/24 00:09:10;;;;;;;2.63;1.93;;;17.10;99.90;;;;;;5074350;28;20652;-57
2022/10/24 00:11:42;;;;;;;7.40;2.33;;;17.20;99.90;;;;;;5104350;28;20191;-58
2022/10/24 00:14:11;;;;;;;5.00;2.23;;;17.30;99.90;;;;;;5107326;28;20202;-58
2022/10/24 00:16:39;;;;;;;5.20;2.23;;;17.30;99.90;;;;;;5088571;28;20550;-58
2022/10/24 00:23:00;;;;;;;4.27;1.83;;;17.40;99.90;;;;;;5088306;28;20192;-58
2022/10/24 00:25:30;;;;;;;3.03;2.07;;;17.50;99.90;;;;;;5110477;28;20203;-57
2022/10/24 00:27:58;;;;;;;6.07;1.97;;;17.50;99.90;;;;;;5091125;28;20278;-58
2022/10/24 00:30:27;;;;;;;7.50;2.43;;;17.50;99.90;;;;;;5074260;28;20189;-57
2022/10/24 00:32:55;;;;;;;3.80;2.13;;;17.50;99.90;;;;;;5062781;28;20198;-57
2022/10/24 00:35:24;;;;;;;4.50;2.40;;;17.50;99.90;;;;;;5100476;28;20194;-57
2022/10/24 00:37:52;;;;;;;5.73;2.23;;;17.40;99.90;;;;;;5109878;28;20194;-57
2022/10/24 00:40:21;;;;;;;9.13;2.37;;;17.40;99.90;;;;;;5076143;28;20191;-58
2022/10/24 00:42:51;;;;;;;7.53;2.17;;;17.40;99.90;;;;;;5082488;28;20194;-58
2022/10/24 00:45:45;;;;;;;2.60;2.23;;;17.40;99.90;;;;;;5067520;28;20198;-59
2022/10/24 00:48:24;;;;;;;4.33;1.90;;;17.30;99.90;;;;;;5059838;28;20219;-59
2022/10/24 00:50:55;;;;;;;4.93;2.23;;;17.30;99.90;;;;;;5084714;28;20556;-58
2022/10/24 00:53:25;;;;;;;6.50;2.50;;;17.30;99.90;;;;;;5102005;28;20209;-59
2022/10/24 00:55:57;;;;;;;5.10;2.00;;;17.20;99.90;;;;;;5076129;28;20294;-59
2022/10/24 00:58:30;;;;;;;10.00;2.40;;;17.20;99.90;;;;;;5073559;28;20221;-58
2022/10/24 01:01:40;;;;;;;4.20;1.83;;;17.20;99.90;;;;;;5072309;28;20210;-58
2022/10/24 01:04:12;;;;;;;4.07;1.93;;;17.30;99.90;;;;;;5110378;28;20220;-59
2022/10/24 01:06:47;;;;;;;5.57;2.03;;;17.30;99.90;;;;;;5060664;28;20229;-59
2022/10/24 01:09:27;;;;;;;5.13;2.00;;;17.20;99.90;;;;;;5075591;28;20191;-58
2022/10/24 01:12:07;;;;;;;7.33;2.07;;;17.20;99.90;;;;;;5089081;28;20279;-58
2022/10/24 01:14:47;;;;;;;3.93;1.93;;;17.10;99.90;;;;;;5100399;28;20199;-58
2022/10/24 01:17:20;;;;;;;7.03;2.03;;;17.10;99.90;;;;;;5081865;28;20651;-58
2022/10/24 01:20:25;;;;;;;5.30;1.77;;;17.10;99.90;;;;;;5077776;28;20194;-58
2022/10/24 01:23:04;;;;;;;2.93;2.00;;;17.10;99.90;;;;;;5071360;28;20235;-59
2022/10/24 01:25:43;;;;;;;3.57;2.03;;;17.10;99.90;;;;;;5075349;28;20195;-59
2022/10/24 01:28:14;;;;;;;3.03;1.70;;;17.10;99.90;;;;;;5093466;28;20205;-58
2022/10/24 01:30:48;;;;;;;3.80;1.60;;;17.00;99.90;;;;;;5081269;28;20193;-59
2022/10/24 01:33:22;;;;;;;6.80;2.30;;;16.80;99.90;;;;;;5088694;28;20222;-58
2022/10/24 01:35:56;;;;;;;6.70;2.17;;;16.90;99.90;;;;;;5089768;28;20190;-59
2022/10/24 01:38:28;;;;;;;9.47;1.80;;;16.90;99.90;;;;;;5073684;28;20284;-58
2022/10/24 01:41:00;;;;;;;5.07;1.70;;;16.80;99.90;;;;;;5073300;28;20200;-59
2022/10/24 01:43:32;;;;;;;4.10;1.53;;;16.80;99.90;;;;;;5082881;28;20211;-59
2022/10/24 01:46:04;;;;;;;2.83;1.60;;;16.80;99.90;;;;;;5075290;28;20204;-58
2022/10/24 01:48:38;;;;;;;8.33;2.00;;;16.80;99.90;;;;;;5090051;28;20210;-59
2022/10/24 01:51:09;;;;;;;6.53;1.80;;;16.80;99.90;;;;;;5064949;28;20201;-58
2022/10/24 01:53:38;;;;;;;2.53;1.57;;;16.70;99.90;;;;;;5091179;28;20201;-58
2022/10/24 01:56:07;;;;;;;7.73;1.80;;;16.70;99.90;;;;;;5104569;28;20263;-59
2022/10/24 01:58:35;;;;;;;4.17;1.70;;;16.60;99.90;;;;;;5075116;28;20189;-58
2022/10/24 02:01:09;;;;;;;6.67;1.60;;;16.60;99.90;;;;;;5093187;28;20195;-58
2022/10/24 02:03:42;;;;;;;4.23;1.73;;;16.60;99.90;;;;;;5092973;28;20196;-58
2022/10/24 02:06:16;;;;;;;7.17;1.80;;;16.60;99.90;;;;;;5092759;28;20670;-58
2022/10/24 02:08:51;;;;;;;7.73;1.77;;;16.50;99.90;;;;;;5089556;28;20196;-59
2022/10/24 02:11:20;;;;;;;7.90;1.80;;;16.50;99.90;;;;;;5092936;28;20635;-59
2022/10/24 02:13:55;;;;;;;3.23;1.87;;;16.50;99.90;;;;;;5092713;28;20668;-58
2022/10/24 02:16:26;;;;;;;6.90;1.53;;;16.50;99.90;;;;;;5092271;28;20203;-59
2022/10/24 02:18:56;;;;;;;8.67;1.67;;;16.60;99.90;;;;;;5073122;28;20193;-58
2022/10/24 02:21:31;;;;;;;2.83;1.40;;;16.60;99.90;;;;;;5085850;28;20195;-58
2022/10/24 02:24:04;;;;;;;5.63;1.70;;;16.70;99.90;;;;;;5102513;28;20195;-59
2022/10/24 02:26:37;;;;;;;6.57;1.70;;;16.70;99.90;;;;;;5096562;28;20677;-58
2022/10/24 02:29:11;;;;;;;9.20;1.70;;;16.70;99.90;;;;;;5100742;28;20549;-58
2022/10/24 02:31:44;;;;;;;10.70;1.63;;;16.80;99.90;;;;;;5089219;28;20190;-58
2022/10/24 02:34:14;;;;;;;5.33;1.40;;;16.80;99.90;;;;;;5100813;28;20216;-59
2022/10/24 02:36:44;;;;;;;5.70;2.07;;;16.80;99.90;;;;;;5098492;28;20194;-58
2022/10/24 02:39:13;;;;;;;6.30;1.43;;;16.90;99.90;;;;;;5076748;28;20205;-59
2022/10/24 02:41:44;;;;;;;5.03;1.47;;;16.80;99.90;;;;;;5082170;28;20575;-58
2022/10/24 02:44:16;;;;;;;4.50;1.80;;;16.80;99.90;;;;;;5096772;28;20530;-59
2022/10/24 02:46:47;;;;;;;8.50;2.00;;;16.70;99.90;;;;;;5106852;28;20199;-58
2022/10/24 02:49:16;;;;;;;8.10;1.80;;;16.70;99.90;;;;;;5108801;28;20197;-59
2022/10/24 02:51:46;;;;;;;9.00;1.90;;;16.70;99.90;;;;;;5096758;28;20683;-59
2022/10/24 02:54:15;;;;;;;4.47;1.43;;;16.70;99.90;;;;;;5096638;28;20182;-58
2022/10/24 02:56:48;;;;;;;4.43;1.83;;;16.70;99.90;;;;;;5096582;28;20660;-58
2022/10/24 02:59:16;;;;;;;5.80;1.53;;;16.60;99.90;;;;;;5095082;28;20200;-59
2022/10/24 03:01:46;;;;;;;6.43;2.07;;;16.60;99.90;;;;;;5104745;28;20650;-58
2022/10/24 03:04:14;;;;;;;3.80;1.37;;;16.70;99.90;;;;;;5085994;28;20198;-58
2022/10/24 03:06:43;;;;;;;7.20;1.97;;;16.60;99.90;;;;;;5096342;28;20228;-59
2022/10/24 03:09:11;;;;;;;6.70;1.83;;;16.70;99.90;;;;;;5096052;28;20204;-58
2022/10/24 03:11:40;;;;;;;5.70;1.80;;;16.70;99.90;;;;;;5096169;28;20196;-58
2022/10/24 03:14:08;;;;;;;10.47;2.87;;;16.70;99.90;;;;;;5095977;28;20193;-58
2022/10/24 03:16:36;;;;;;;5.63;1.60;;;16.70;99.90;;;;;;5086641;28;20213;-59
2022/10/24 03:19:06;;;;;;;4.83;1.70;;;16.60;99.90;;;;;;5085112;28;20197;-58
2022/10/24 03:21:35;;;;;;;3.67;1.50;;;16.60;99.90;;;;;;5093593;28;20191;-58
2022/10/24 03:24:04;;;;;;;6.40;1.80;;;16.60;99.90;;;;;;5094938;28;20228;-58
2022/10/24 03:26:32;;;;;;;6.20;1.70;;;16.60;99.90;;;;;;5084118;28;20684;-58
2022/10/24 03:29:00;;;;;;;5.93;1.60;;;16.60;99.90;;;;;;5095480;28;20196;-58
2022/10/24 03:31:30;;;;;;;3.43;1.80;;;16.60;99.90;;;;;;5094835;28;20552;-58
2022/10/24 03:33:58;;;;;;;2.93;1.80;;;16.60;99.90;;;;;;5080176;28;20264;-58
2022/10/24 03:36:28;;;;;;;7.13;2.20;;;16.50;99.90;;;;;;5075378;28;20199;-58
2022/10/24 03:38:56;;;;;;;7.87;1.60;;;16.50;99.90;;;;;;5085539;28;20217;-59
2022/10/24 03:41:25;;;;;;;4.30;1.53;;;16.50;99.90;;;;;;5095774;28;20885;-59
2022/10/24 03:43:53;;;;;;;5.17;2.00;;;16.50;99.90;;;;;;5077231;28;20220;-59
2022/10/24 03:46:21;;;;;;;7.50;1.70;;;16.60;99.90;;;;;;5095285;28;20201;-58
2022/10/24 03:48:50;;;;;;;3.03;2.33;;;16.60;99.90;;;;;;5064350;28;20639;-58
2022/10/24 03:51:18;;;;;;;4.63;1.53;;;16.60;99.90;;;;;;5083942;28;20683;-59
2022/10/24 03:53:48;;;;;;;5.70;1.80;;;16.60;99.90;;;;;;5074771;28;20184;-60
2022/10/24 03:56:16;;;;;;;8.63;2.00;;;16.60;99.90;;;;;;5092951;28;20197;-59
2022/10/24 03:58:44;;;;;;;6.37;1.90;;;16.70;99.90;;;;;;5095159;28;20192;-59
2022/10/24 04:01:16;;;;;;;13.37;2.23;;;16.70;99.90;;;;;;5088466;28;20190;-58
2022/10/24 04:03:52;;;;;;;3.63;1.90;;;16.70;99.90;;;;;;5077629;28;20681;-60
2022/10/24 04:06:21;;;;;;;7.57;1.80;;;16.70;99.90;;;;;;5078382;28;20236;-57
2022/10/24 04:08:50;;;;;;;5.80;1.90;;;16.70;99.90;;;;;;5098685;28;20197;-57
2022/10/24 04:11:18;;;;;;;3.10;1.60;;;16.60;99.90;;;;;;5115274;28;20195;-57
2022/10/24 04:13:47;;;;;;;8.30;1.70;;;16.60;99.90;;;;;;5080404;28;20189;-56
2022/10/24 04:16:16;;;;;;;6.47;1.50;;;16.60;99.90;;;;;;5115689;28;20526;-57
2022/10/24 04:18:45;;;;;;;5.70;1.80;;;16.60;99.90;;;;;;5115004;28;20184;-58
2022/10/24 04:21:13;;;;;;;5.03;1.60;;;16.60;99.90;;;;;;5079999;28;20208;-57
2022/10/24 04:23:50;;;;;;;10.67;2.50;;;16.60;99.90;;;;;;5094741;28;20620;-57
2022/10/24 04:26:18;;;;;;;8.27;2.17;;;16.60;99.90;;;;;;5114926;28;20208;-57
2022/10/24 04:28:47;;;;;;;7.10;1.80;;;16.70;99.90;;;;;;5114908;28;20193;-57
2022/10/24 04:31:15;;;;;;;14.17;2.00;;;16.70;99.90;;;;;;5115452;28;20191;-58
2022/10/24 04:33:49;;;;;;;6.83;1.83;;;16.70;99.90;;;;;;5114699;28;20288;-58
2022/10/24 04:36:17;;;;;;;8.07;2.37;;;16.70;99.90;;;;;;5114295;28;20197;-58
2022/10/24 04:38:46;;;;;;;5.13;1.63;;;16.70;99.90;;;;;;5104130;28;20207;-58
2022/10/24 04:41:16;;;;;;;11.47;2.10;;;16.70;99.90;;;;;;5094425;28;20514;-58
2022/10/24 04:43:44;;;;;;;6.73;2.13;;;16.70;99.90;;;;;;5093384;28;20213;-58
2022/10/24 04:46:13;;;;;;;8.70;2.80;;;16.70;99.90;;;;;;5103476;28;20192;-57
2022/10/24 04:48:41;;;;;;;9.27;1.90;;;16.70;99.90;;;;;;5096467;28;20200;-58
2022/10/24 04:51:09;;;;;;;7.70;2.17;;;16.80;99.90;;;;;;5114666;28;20201;-57
2022/10/24 04:53:37;;;;;;;7.97;2.00;;;16.70;99.90;;;;;;5090217;28;20548;-58
2022/10/24 04:56:06;;;;;;;5.73;1.97;;;16.80;99.90;;;;;;5094116;28;20201;-57
2022/10/24 04:58:36;;;;;;;7.00;2.53;;;16.80;99.90;;;;;;5109856;28;20185;-58
2022/10/24 05:01:05;;;;;;;10.80;2.20;;;16.80;99.90;;;;;;5096159;28;20184;-58
2022/10/24 05:03:33;;;;;;;10.37;2.40;;;16.70;99.90;;;;;;5093950;28;20252;-57
2022/10/24 05:06:01;;;;;;;10.93;2.03;;;16.60;99.90;;;;;;5110945;28;20207;-58
2022/10/24 05:08:30;;;;;;;12.17;2.23;;;16.40;99.90;;;;;;5114483;28;20192;-58
2022/10/24 05:10:58;;;;;;;11.30;2.57;;;16.10;99.90;;;;;;5099095;28;20200;-57
2022/10/24 05:13:26;;;;;;;8.90;2.00;;;16.10;99.90;;;;;;5075566;28;20561;-58
2022/10/24 05:15:59;;;;;;;10.13;2.33;;;16.00;99.90;;;;;;5075597;28;20199;-58
2022/10/24 05:18:27;;;;;;;5.43;2.03;;;15.90;99.90;;;;;;5112309;28;20556;-58
2022/10/24 05:20:56;;;;;;;10.60;2.23;;;15.90;99.90;;;;;;5093335;28;20195;-58
2022/10/24 05:23:25;;;;;;;9.80;2.67;;;15.90;99.90;;;;;;5107610;28;20215;-57
2022/10/24 05:25:54;;;;;;;10.90;2.00;;;15.90;99.90;;;;;;5113206;28;20196;-58
2022/10/24 05:28:22;;;;;;;13.07;2.63;;;15.90;99.90;;;;;;5113026;28;20196;-57
2022/10/24 05:30:51;;;;;;;6.37;2.47;;;15.90;99.90;;;;;;5086458;28;20192;-57
2022/10/24 05:33:22;;;;;;;16.90;3.23;;;15.90;99.90;;;;;;5103814;28;20208;-57
2022/10/24 05:35:51;;;;;;;11.73;2.33;;;15.90;99.90;;;;;;5113559;28;20192;-57
2022/10/24 05:38:19;;;;;;;10.57;2.17;;;15.70;99.90;;;;;;5113831;28;20703;-58
2022/10/24 05:40:50;;;;;;;13.30;2.23;;;15.40;99.90;;;;;;5091810;28;20197;-58
2022/10/24 05:43:18;;;;;;;9.97;2.53;;;15.20;99.90;;;;;;5093603;28;20211;-57
2022/10/24 05:45:48;;;;;;;12.23;2.43;;;15.10;99.90;;;;;;5070797;28;20191;-58
2022/10/24 05:48:17;;;;;;;11.73;2.20;;;15.00;99.90;;;;;;5110184;28;20210;-58
2022/10/24 05:50:47;;;;;;;13.73;3.10;;;14.90;99.90;;;;;;5098059;28;20544;-57
2022/10/24 05:53:15;;;;;;;8.80;2.30;;;14.80;99.90;;;;;;5105560;28;20203;-57
2022/10/24 05:55:44;;;;;;;9.60;2.17;;;14.80;99.90;;;;;;5087817;28;20216;-57
2022/10/24 05:58:12;;;;;;;12.27;2.73;;;14.70;99.90;;;;;;5120902;27;20194;-57
2022/10/24 06:00:40;;;;;;;12.93;2.90;;;14.70;99.90;;;;;;5107036;28;20194;-58
2022/10/24 06:03:11;;;;;;;10.77;2.17;;;14.70;99.90;;;;;;5090921;28;20202;-58
2022/10/24 06:05:39;;;;;;;10.97;2.73;;;14.60;99.90;;;;;;5113515;28;20269;-58
2022/10/24 06:08:09;;;;;;;13.83;2.90;;;14.60;99.90;;;;;;5113528;28;20226;-58
2022/10/24 06:10:38;;;;;;;12.80;2.60;;;14.60;99.90;;;;;;5113630;28;20191;-58
2022/10/24 06:13:06;;;;;;;11.50;2.20;;;14.60;99.90;;;;;;5113334;28;20195;-59
2022/10/24 06:15:34;;;;;;;11.40;2.30;;;14.60;99.90;;;;;;5108112;28;20191;-58
2022/10/24 06:18:03;;;;;;;11.53;2.30;;;14.70;99.90;;;;;;5113723;28;20546;-58
2022/10/24 06:20:31;;;;;;;9.30;2.30;;;14.70;99.90;;;;;;5113206;28;20190;-58
2022/10/24 06:22:59;;;;;;;8.27;2.07;;;14.70;99.90;;;;;;5114427;28;20195;-58
2022/10/24 06:25:29;;;;;;;10.17;2.30;;;14.70;99.90;;;;;;5112931;28;20229;-58
2022/10/24 06:27:57;;;;;;;10.60;1.93;;;14.80;99.90;;;;;;5113087;28;20225;-58
2022/10/24 06:30:25;;;;;;;8.33;2.57;;;14.80;99.90;;;;;;5113152;28;20195;-58
2022/10/24 06:32:53;;;;;;;7.67;2.17;;;14.80;99.90;;;;;;5094821;28;20191;-59
2022/10/24 06:35:22;;;;;;;11.60;2.40;;;14.70;99.90;;;;;;5113073;28;20195;-58
2022/10/24 06:37:50;;;;;;;6.87;2.00;;;14.70;99.90;;;;;;5095075;28;20198;-58
2022/10/24 06:40:19;;;;;;;6.90;2.00;;;14.70;99.90;;;;;;5105618;28;20191;-58
2022/10/24 06:42:48;;;;;;;14.20;2.83;;;14.60;99.90;;;;;;5095282;28;20679;-58
2022/10/24 06:45:20;;;;;;;9.33;2.33;;;14.70;99.90;;;;;;5112591;28;20680;-58
2022/10/24 06:47:49;;;;;;;5.47;2.13;;;14.60;99.90;;;;;;5119460;28;20251;-59
2022/10/24 06:50:21;;;;;;;11.03;2.20;;;14.60;99.90;;;;;;5108226;28;20605;-59
2022/10/24 06:52:50;;;;;;;7.57;1.87;;;14.60;99.90;;;;;;5112928;28;20202;-58
2022/10/24 06:55:18;;;;;;;7.93;1.80;;;14.60;99.90;;;;;;5112818;28;20198;-58
2022/10/24 06:57:47;;;;;;;12.40;2.73;;;14.60;99.90;;;;;;5095162;28;20194;-58
2022/10/24 07:00:16;;;;;;;9.10;2.27;;;14.70;99.90;;;;;;5113003;28;20217;-58
2022/10/24 07:02:45;;;;;;;9.27;1.90;;;14.70;99.90;;;;;;5094223;28;20183;-58
2022/10/24 07:05:14;;;;;;;8.90;2.00;;;14.80;99.90;;;;;;5112923;28;20301;-58
2022/10/24 07:07:43;;;;;;;5.83;2.10;;;14.90;99.90;;;;;;5098678;28;20711;-58
2022/10/24 07:10:14;;;;;;;11.83;2.27;;;15.00;99.90;;;;;;5096708;28;20278;-58
2022/10/24 07:12:43;;;;;;;8.77;1.93;;;15.00;99.90;;;;;;5097869;28;20665;-58
2022/10/24 07:15:13;;;;;;;12.67;2.37;;;15.00;99.90;;;;;;5116712;28;20198;-58
2022/10/24 07:17:41;;;;;;;9.40;2.30;;;15.10;99.90;;;;;;5098438;28;20186;-58
2022/10/24 07:20:11;;;;;;;10.70;2.53;;;15.10;99.90;;;;;;5098527;28;20186;-58
2022/10/24 07:22:40;;;;;;;5.93;2.13;;;15.10;99.90;;;;;;5116490;28;20199;-58
2022/10/24 07:25:09;;;;;;;8.60;1.87;;;15.20;99.90;;;;;;5116789;28;20215;-58
2022/10/24 07:27:38;;;;;;;11.63;2.73;;;15.20;99.90;;;;;;5111402;28;20196;-58
2022/10/24 07:30:07;;;;;;;10.63;2.07;;;15.20;99.90;;;;;;5098474;28;20194;-59
2022/10/24 07:32:37;;;;;;;7.20;2.10;;;15.20;99.90;;;;;;5115553;28;20203;-58
2022/10/24 07:35:06;;;;;;;12.40;2.40;;;15.30;99.90;;;;;;5097829;28;20720;-58
2022/10/24 07:37:34;;;;;;;7.30;2.17;;;15.30;99.90;;;;;;5098369;28;20658;-58
2022/10/24 07:40:02;;;;;;;13.03;2.30;;;15.30;99.90;;;;;;5116350;28;20191;-59
2022/10/24 07:42:30;;;;;;;11.87;2.67;;;15.40;99.90;;;;;;5115968;28;20199;-57
2022/10/24 07:44:59;;;;;;;9.37;2.13;;;15.40;99.90;;;;;;5098152;28;20211;-58
2022/10/24 07:47:27;;;;;;;10.30;2.50;;;15.40;99.90;;;;;;5118441;27;20199;-59
2022/10/24 07:49:57;;;;;;;13.63;2.47;;;15.40;99.90;;;;;;5115975;28;20538;-58
2022/10/24 07:52:25;;;;;;;10.20;2.10;;;15.40;99.90;;;;;;5115972;28;20221;-57
2022/10/24 07:54:54;;;;;;;12.20;3.00;;;15.50;99.90;;;;;;5097656;28;20192;-57
2022/10/24 07:57:22;;;;;;;10.57;2.10;;;15.60;99.90;;;;;;5098077;28;20230;-57
2022/10/24 07:59:51;;;;;;;14.77;2.93;;;15.60;99.90;;;;;;5115894;28;20710;-58
2022/10/24 08:02:19;;;;;;;7.70;2.00;;;15.60;99.90;;;;;;5097513;28;20189;-57
2022/10/24 08:04:47;;;;;;;11.70;2.60;;;15.60;99.90;;;;;;5115399;28;20217;-58
2022/10/24 08:07:17;;;;;;;11.67;2.40;;;15.60;99.90;;;;;;5097142;28;20704;-58
2022/10/24 08:09:50;;;;;;;13.53;2.33;;;15.70;99.90;;;;;;5115794;28;20188;-58
2022/10/24 08:12:18;;;;;;;15.13;3.00;;;15.70;99.90;;;;;;5115350;28;20192;-59
2022/10/24 08:14:46;;;;;;;16.00;2.77;;;15.60;99.90;;;;;;5097342;28;20192;-58
2022/10/24 08:17:17;;;;;;;13.30;2.77;;;15.60;99.90;;;;;;5115210;28;20203;-59
2022/10/24 08:19:45;;;;;;;10.97;2.40;;;15.60;99.90;;;;;;5115061;28;20196;-58
2022/10/24 08:22:14;;;;;;;8.77;2.00;;;15.70;99.90;;;;;;5091097;27;20219;-57
2022/10/24 08:24:44;;;;;;;13.63;3.20;;;15.90;99.90;;;;;;5115247;28;20199;-59
2022/10/24 08:27:13;;;;;;;10.90;2.70;;;15.90;99.90;;;;;;5115181;28;20558;-58
2022/10/24 08:29:41;;;;;;;10.90;2.50;;;15.90;99.90;;;;;;5115237;28;20582;-58
2022/10/24 08:32:09;;;;;;;12.80;2.93;;;15.70;99.90;;;;;;5115286;28;20192;-58
2022/10/24 08:34:38;;;;;;;19.57;3.63;;;15.70;99.90;;;;;;5115308;28;20212;-59
2022/10/24 08:37:06;;;;;;;15.53;2.83;;;15.60;99.90;;;;;;5115169;28;20279;-58
2022/10/24 08:39:34;;;;;;;10.23;2.67;;;15.60;99.90;;;;;;5114685;28;20228;-58
2022/10/24 08:42:06;;;;;;;9.63;2.53;;;15.70;99.90;;;;;;5077818;28;20277;-58
2022/10/24 08:44:38;;;;;;;13.97;3.10;;;15.70;99.90;;;;;;5095465;28;20202;-58
2022/10/24 08:47:19;;;;;;;9.00;2.40;;;15.80;99.90;;;;;;5114789;28;20214;-58
2022/10/24 08:49:52;;;;;;;14.67;3.03;;;16.00;99.90;;;;;;5115151;28;20200;-57
2022/10/24 08:52:28;;;;;;;18.03;3.30;;;16.10;99.90;;;;;;5114814;28;20192;-57
2022/10/24 08:54:58;;;;;;;10.43;2.77;;;16.10;99.90;;;;;;5094833;28;20197;-57
2022/10/24 08:57:35;;;;;;;16.03;2.57;;;16.20;99.90;;;;;;5096008;28;20207;-58
2022/10/24 09:00:14;;;;;;;8.77;2.93;;;16.30;99.90;;;;;;5109885;28;20203;-57
2022/10/24 09:02:44;;;;;;;10.03;2.53;;;16.40;99.90;;;;;;5114138;28;20201;-57
2022/10/24 09:05:22;;;;;;;12.53;2.80;;;16.40;99.90;;;;;;5096371;28;20214;-58
2022/10/24 09:08:17;;;;;;;13.23;2.73;;;16.60;99.90;;;;;;5114343;28;20231;-58
2022/10/24 09:10:55;;;;;;;13.67;2.87;;;16.60;99.90;;;;;;5114299;28;20555;-58
2022/10/24 09:13:27;;;;;;;12.90;2.60;;;16.60;99.90;;;;;;5114659;28;20185;-58
2022/10/24 09:15:55;;;;;;;16.63;3.07;;;16.70;99.90;;;;;;5094659;28;20200;-57
2022/10/24 09:18:28;;;;;;;13.13;2.60;;;17.10;99.90;;;;;;5104976;28;20202;-57
2022/10/24 09:20:58;;;;;;;16.43;3.03;;;17.20;99.90;;;;;;5112698;28;20529;-57
2022/10/24 09:23:27;;;;;;;9.67;2.50;;;17.20;99.90;;;;;;5094834;28;20235;-57
2022/10/24 09:25:57;;;;;;;14.73;2.83;;;16.90;99.90;;;;;;5113910;28;20211;-57
2022/10/24 09:28:27;;;;;;;10.53;2.20;;;16.70;99.90;;;;;;5106608;28;20201;-58
2022/10/24 09:30:55;;;;;;;12.57;3.00;;;16.60;99.90;;;;;;5094261;28;20191;-58
2022/10/24 09:33:29;;;;;;;7.90;3.00;;;16.70;99.90;;;;;;5113799;28;20550;-58
2022/10/24 09:36:01;;;;;;;7.17;2.40;;;16.80;99.90;;;;;;5132441;27;20216;-57
2022/10/24 09:38:33;;;;;;;7.00;2.47;;;16.80;99.90;;;;;;5118868;27;20194;-57
2022/10/24 09:41:05;;;;;;;9.10;2.20;;;17.00;99.90;;;;;;5113828;28;20278;-58
2022/10/24 09:43:46;;;;;;;11.87;2.10;;;17.20;99.90;;;;;;5113967;28;20285;-57
2022/10/24 09:46:18;;;;;;;9.70;2.20;;;17.40;99.90;;;;;;5113759;28;20206;-57
2022/10/24 09:48:51;;;;;;;11.47;2.23;;;17.70;99.90;;;;;;5130295;27;20585;-58
2022/10/24 09:51:31;;;;;;;12.97;2.70;;;17.90;99.90;;;;;;5101097;28;21904;-58
2022/10/24 09:54:03;;;;;;;7.30;2.17;;;18.20;99.90;;;;;;5113667;28;20194;-57
2022/10/24 09:56:37;;;;;;;6.83;1.90;;;18.20;99.90;;;;;;5113307;28;20187;-58
2022/10/24 09:59:30;;;;;;;6.80;2.47;;;18.00;99.90;;;;;;5117537;27;20733;-57
2022/10/24 10:02:33;;;;;;;9.23;2.00;;;17.90;99.90;;;;;;5126160;28;20627;-58
2022/10/24 10:05:21;;;;;;;9.70;2.30;;;17.90;99.90;;;;;;5079931;28;20248;-58
2022/10/24 10:07:51;;;;;;;8.37;2.10;;;18.00;99.90;;;;;;5100067;28;20564;-60
2022/10/24 10:10:31;;;;;;;11.07;2.30;;;18.00;99.90;;;;;;5111007;28;20233;-59
2022/10/24 10:13:04;;;;;;;6.20;2.17;;;18.10;99.90;;;;;;5105689;28;20187;-58
2022/10/24 10:15:37;;;;;;;6.50;2.00;;;18.10;99.90;;;;;;5113594;28;20189;-58
2022/10/24 10:18:20;;;;;;;8.10;1.87;;;18.20;99.90;;;;;;5113107;28;20251;-59
2022/10/24 10:21:00;;;;;;;13.43;2.70;;;18.30;99.90;;;;;;5113213;28;20195;-59
2022/10/24 10:23:31;;;;;;;8.17;2.40;;;18.40;99.90;;;;;;5095015;28;20199;-58
2022/10/24 10:26:06;;;;;;;9.43;2.13;;;18.20;99.90;;;;;;5113633;28;20207;-58
2022/10/24 10:28:41;;;;;;;12.33;2.60;;;18.30;99.90;;;;;;5094879;28;20205;-58
2022/10/24 10:31:11;;;;;;;9.70;2.20;;;18.30;99.90;;;;;;5112867;28;20197;-58
2022/10/24 10:33:50;;;;;;;10.60;2.20;;;18.50;99.90;;;;;;5113673;28;20238;-60
2022/10/24 10:36:24;;;;;;;14.03;2.47;;;18.70;99.90;;;;;;5112659;28;20209;-58
2022/10/24 10:38:58;;;;;;;6.43;2.00;;;18.70;99.90;;;;;;5094762;28;20186;-58
2022/10/24 10:41:42;;;;;;;7.97;2.53;;;18.70;99.90;;;;;;5109292;28;20205;-58
2022/10/24 10:44:34;;;;;;;11.37;2.57;;;18.70;99.90;;;;;;5101695;28;20690;-58
2022/10/24 10:47:12;;;;;;;11.40;2.60;;;18.70;99.90;;;;;;5111521;28;20693;-58
2022/10/24 10:49:42;;;;;;;12.77;2.53;;;18.90;99.90;;;;;;5115933;28;20648;-57
2022/10/24 10:52:15;;;;;;;9.17;2.60;;;18.70;99.90;;;;;;5113722;28;20278;-59
2022/10/24 10:54:59;;;;;;;11.70;2.50;;;18.50;99.90;;;;;;5107504;28;20209;-58
2022/10/24 10:57:32;;;;;;;9.73;2.37;;;18.40;99.90;;;;;;5101971;28;20175;-59
2022/10/24 11:00:07;;;;;;;6.87;1.93;;;18.60;99.90;;;;;;5095665;28;20194;-58
2022/10/24 11:02:53;;;;;;;8.83;2.30;;;18.80;99.90;;;;;;5068147;28;20193;-58
2022/10/24 11:05:52;;;;;;;12.00;2.70;;;18.90;99.90;;;;;;5112136;28;20214;-58
2022/10/24 11:08:37;;;;;;;9.13;2.20;;;18.70;99.90;;;;;;5099727;28;20206;-58
2022/10/24 11:11:11;;;;;;;8.83;2.10;;;18.40;99.90;;;;;;5113010;28;20530;-58
2022/10/24 11:13:45;;;;;;;5.63;1.73;;;18.20;99.90;;;;;;5106173;28;20632;-58
2022/10/24 11:16:19;;;;;;;8.90;2.10;;;18.20;99.90;;;;;;5109836;28;20187;-58
2022/10/24 11:18:51;;;;;;;6.90;2.00;;;18.20;99.90;;;;;;5116817;28;20182;-58
2022/10/24 11:21:23;;;;;;;12.37;2.27;;;18.20;99.90;;;;;;5103332;28;20202;-58
2022/10/24 11:23:55;;;;;;;8.17;2.20;;;18.30;99.90;;;;;;5098114;28;20183;-58
2022/10/24 11:26:30;;;;;;;8.87;2.27;;;18.40;99.90;;;;;;5102248;28;20219;-58
2022/10/24 11:29:04;;;;;;;7.33;2.17;;;18.80;99.90;;;;;;5115868;28;20671;-58
2022/10/24 11:31:36;;;;;;;8.17;2.40;;;18.60;99.90;;;;;;5100217;28;20221;-58
2022/10/24 11:34:14;;;;;;;10.30;2.50;;;18.70;99.90;;;;;;5066723;28;20204;-58
2022/10/24 11:36:46;;;;;;;6.63;2.00;;;18.80;99.90;;;;;;5093258;28;20214;-59
2022/10/24 11:39:24;;;;;;;7.90;2.40;;;18.70;99.90;;;;;;5097742;28;20611;-58
2022/10/24 11:41:58;;;;;;;10.70;2.20;;;19.10;99.90;;;;;;5088580;28;20278;-59
2022/10/24 11:44:46;;;;;;;8.30;1.83;;;19.40;99.90;;;;;;5106725;28;20201;-59
2022/10/24 11:47:41;;;;;;;5.83;1.80;;;19.60;99.90;;;;;;5116010;28;20211;-59
2022/10/24 11:50:21;;;;;;;8.27;2.13;;;19.60;99.90;;;;;;5105870;28;20222;-58
2022/10/24 11:52:57;;;;;;;5.27;1.77;;;19.50;99.90;;;;;;5102849;28;20511;-59
2022/10/24 11:55:30;;;;;;;5.17;1.87;;;19.20;99.90;;;;;;5097352;28;20194;-58
2022/10/24 11:58:00;;;;;;;7.37;1.97;;;19.00;99.90;;;;;;5097679;28;20211;-58
2022/10/24 12:00:33;;;;;;;4.80;2.00;;;18.90;99.90;;;;;;5114983;28;20568;-58
2022/10/24 12:03:20;;;;;;;7.03;2.40;;;18.90;99.90;;;;;;5114973;28;20191;-58
2022/10/24 12:06:10;;;;;;;11.23;1.60;;;19.10;99.90;;;;;;5115339;28;20187;-58
2022/10/24 12:09:14;;;;;;;5.27;1.70;;;19.30;99.90;;;;;;5111573;28;20227;-58
2022/10/24 12:12:03;;;;;;;5.17;2.20;;;19.10;99.90;;;;;;5114937;28;20206;-58
2022/10/24 12:14:54;;;;;;;4.37;1.70;;;18.90;99.90;;;;;;5115480;28;20190;-58
2022/10/24 12:17:37;;;;;;;4.23;1.70;;;18.90;99.90;;;;;;5097609;28;20179;-59
2022/10/24 12:20:11;;;;;;;6.13;1.70;;;19.00;99.90;;;;;;5107546;28;20195;-58
2022/10/24 12:22:43;;;;;;;11.80;2.27;;;19.00;99.90;;;;;;5097019;28;20187;-58
2022/10/24 12:25:22;;;;;;;5.10;1.87;;;19.10;99.90;;;;;;5115285;28;20656;-58
2022/10/24 12:27:55;;;;;;;4.47;1.93;;;19.30;99.90;;;;;;5098539;28;20218;-58
2022/10/24 12:30:26;;;;;;;3.37;1.57;;;19.40;99.90;;;;;;5115525;28;20179;-60
2022/10/24 12:32:57;;;;;;;3.97;1.37;;;19.80;99.90;;;;;;5114931;28;20198;-59
2022/10/24 12:35:56;;;;;;;6.70;1.50;;;20.20;99.90;;;;;;5112515;28;20661;-58
2022/10/24 12:39:07;;;;;;;6.30;1.80;;;20.40;99.90;;;;;;5103974;27;20190;-59
2022/10/24 12:41:42;;;;;;;3.50;1.67;;;20.40;99.90;;;;;;5114812;28;20201;-59
2022/10/24 12:44:39;;;;;;;3.93;1.50;;;20.40;99.90;;;;;;5119196;27;20189;-58
2022/10/24 12:47:34;;;;;;;4.67;1.20;;;20.20;99.90;;;;;;5096585;28;20301;-58
2022/10/24 12:50:40;;;;;;;1.93;1.40;;;20.20;99.90;;;;;;5094486;28;20183;-58
2022/10/24 12:53:30;;;;;;;2.40;1.27;;;20.20;99.90;;;;;;5106930;28;20699;-58
2022/10/24 12:56:14;;;;;;;4.53;1.37;;;20.10;99.90;;;;;;5104323;28;20205;-59
2022/10/24 12:58:55;;;;;;;3.03;1.20;;;19.90;99.90;;;;;;5094772;28;20180;-58
2022/10/24 13:01:28;;;;;;;2.10;1.30;;;19.70;99.90;;;;;;5085855;27;20541;-58
2022/10/24 13:04:28;;;;;;;2.77;1.43;;;19.70;99.90;;;;;;5102199;28;20210;-58
2022/10/24 13:07:28;;;;;;;3.03;1.10;;;19.90;99.90;;;;;;5098526;28;20573;-58
2022/10/24 13:10:07;;;;;;;4.70;1.20;;;20.00;99.90;;;;;;5111173;28;20202;-58
2022/10/24 13:12:52;;;;;;;4.37;1.20;;;19.90;99.90;;;;;;5099511;27;20186;-59
2022/10/24 13:15:40;;;;;;;1.87;1.40;;;19.80;99.90;;;;;;5106701;27;20195;-57
2022/10/24 13:18:20;;;;;;;2.20;1.03;;;19.80;99.90;;;;;;5105670;28;20195;-58